sensor_id;sensor_type;location;lat;lon;timestamp;pressure;altitude;pressure_sealevel;temperature;humidity
54248;BME280;40161;39.768;2.722;2023-04-02T00:01:42;101094.44;;;12.11;100.00
54248;BME280;40161;39.768;2.722;2023-04-02T00:04:17;101147.03;;;12.06;100.00
54248;BME280;40161;39.768;2.722;2023-04-02T00:06:55;101172.84;;;11.98;100.00
54248;BME280;40161;39.768;2.722;2023-04-02T00:09:40;101206.81;;;12.09;100.00
54248;BME280;40161;39.768;2.722;2023-04-02T00:12:15;101188.88;;;11.96;100.00
54248;BME280;40161;39.768;2.722;2023-04-02T00:14:46;101205.25;;;12.08;100.00
54248;BME280;40161;39.768;2.722;2023-04-02T00:17:12;101196.88;;;12.24;100.00
54248;BME280;40161;39.768;2.722;2023-04-02T00:19:50;101205.50;;;12.45;100.00
54248;BME280;40161;39.768;2.722;2023-04-02T00:22:18;101187.91;;;12.50;100.00
54248;BME280;40161;39.768;2.722;2023-04-02T00:24:45;101161.16;;;12.50;100.00
54248;BME280;40161;39.768;2.722;2023-04-02T00:27:12;101158.97;;;12.37;100.00
54248;BME280;40161;39.768;2.722;2023-04-02T00:29:46;101149.41;;;12.30;100.00
54248;BME280;40161;39.768;2.722;2023-04-02T00:32:26;101138.91;;;12.36;95.45
54248;BME280;40161;39.768;2.722;2023-04-02T00:34:53;101075.16;;;11.84;93.71
54248;BME280;40161;39.768;2.722;2023-04-02T00:37:23;101128.06;;;12.47;92.50
54248;BME280;40161;39.768;2.722;2023-04-02T00:39:55;101124.16;;;12.48;92.86
54248;BME280;40161;39.768;2.722;2023-04-02T00:42:24;101128.06;;;12.47;90.95
54248;BME280;40161;39.768;2.722;2023-04-02T00:44:50;101102.75;;;12.15;93.27
54248;BME280;40161;39.768;2.722;2023-04-02T00:47:21;101115.44;;;12.42;96.21
54248;BME280;40161;39.768;2.722;2023-04-02T00:52:40;101139.81;;;12.21;91.66
54248;BME280;40161;39.768;2.722;2023-04-02T00:55:22;101130.28;;;12.38;94.71
54248;BME280;40161;39.768;2.722;2023-04-02T00:57:50;101108.41;;;12.48;95.12
54248;BME280;40161;39.768;2.722;2023-04-02T01:00:28;101131.22;;;12.49;89.94
54248;BME280;40161;39.768;2.722;2023-04-02T01:05:48;101133.75;;;12.57;90.18
54248;BME280;40161;39.768;2.722;2023-04-02T01:08:28;101097.25;;;12.38;88.70
54248;BME280;40161;39.768;2.722;2023-04-02T01:21:43;101100.97;;;12.75;79.31
54248;BME280;40161;39.768;2.722;2023-04-02T01:24:17;101100.28;;;12.82;81.20
54248;BME280;40161;39.768;2.722;2023-04-02T01:27:07;101116.94;;;12.93;79.26
54248;BME280;40161;39.768;2.722;2023-04-02T01:29:43;101097.16;;;12.83;81.14
54248;BME280;40161;39.768;2.722;2023-04-02T01:32:16;101092.69;;;12.75;79.16
54248;BME280;40161;39.768;2.722;2023-04-02T01:34:46;101105.53;;;12.91;79.05
54248;BME280;40161;39.768;2.722;2023-04-02T01:37:21;101119.19;;;13.14;77.94
54248;BME280;40161;39.768;2.722;2023-04-02T01:45:21;101095.38;;;12.98;78.33
54248;BME280;40161;39.768;2.722;2023-04-02T01:47:48;101095.91;;;13.07;79.47
54248;BME280;40161;39.768;2.722;2023-04-02T01:50:24;101086.81;;;13.07;77.84
54248;BME280;40161;39.768;2.722;2023-04-02T01:52:57;101078.59;;;13.11;78.11
54248;BME280;40161;39.768;2.722;2023-04-02T01:55:39;101066.28;;;13.31;78.28
54248;BME280;40161;39.768;2.722;2023-04-02T01:58:08;101085.28;;;13.10;75.87
54248;BME280;40161;39.768;2.722;2023-04-02T02:03:16;101083.25;;;13.03;80.08
54248;BME280;40161;39.768;2.722;2023-04-02T02:05:42;101089.03;;;12.94;79.11
54248;BME280;40161;39.768;2.722;2023-04-02T02:08:19;101097.50;;;13.09;79.12
54248;BME280;40161;39.768;2.722;2023-04-02T02:10:48;101080.66;;;13.17;77.79
54248;BME280;40161;39.768;2.722;2023-04-02T02:13:15;101109.44;;;13.20;76.48
54248;BME280;40161;39.768;2.722;2023-04-02T02:15:40;101106.72;;;12.93;75.74
54248;BME280;40161;39.768;2.722;2023-04-02T02:18:06;101081.47;;;12.88;76.12
54248;BME280;40161;39.768;2.722;2023-04-02T02:20:35;101113.13;;;13.01;76.90
54248;BME280;40161;39.768;2.722;2023-04-02T02:23:01;101104.91;;;13.04;76.67
54248;BME280;40161;39.768;2.722;2023-04-02T02:25:31;101097.41;;;13.01;76.02
54248;BME280;40161;39.768;2.722;2023-04-02T02:30:52;101100.94;;;13.02;76.03
54248;BME280;40161;39.768;2.722;2023-04-02T02:33:40;101026.38;;;12.57;75.66
54248;BME280;40161;39.768;2.722;2023-04-02T02:36:24;101104.44;;;12.99;74.39
54248;BME280;40161;39.768;2.722;2023-04-02T02:39:01;101053.50;;;12.86;74.67
54248;BME280;40161;39.768;2.722;2023-04-02T02:41:47;101101.00;;;13.05;74.50
54248;BME280;40161;39.768;2.722;2023-04-02T02:44:19;101109.31;;;13.09;76.01
54248;BME280;40161;39.768;2.722;2023-04-02T02:47:00;101069.63;;;12.83;74.66
54248;BME280;40161;39.768;2.722;2023-04-02T02:49:30;101095.00;;;13.00;73.09
54248;BME280;40161;39.768;2.722;2023-04-02T02:52:14;101083.38;;;12.83;72.75
54248;BME280;40161;39.768;2.722;2023-04-02T02:54:43;101090.31;;;13.04;73.76
54248;BME280;40161;39.768;2.722;2023-04-02T02:57:15;101114.84;;;13.13;72.71
54248;BME280;40161;39.768;2.722;2023-04-02T02:59:43;101112.75;;;13.02;71.84
54248;BME280;40161;39.768;2.722;2023-04-02T03:02:09;101111.72;;;13.14;72.42
54248;BME280;40161;39.768;2.722;2023-04-02T03:04:35;101099.06;;;13.10;71.26
54248;BME280;40161;39.768;2.722;2023-04-02T03:07:02;101094.16;;;12.96;69.92
54248;BME280;40161;39.768;2.722;2023-04-02T03:09:37;101122.94;;;13.25;69.71
54248;BME280;40161;39.768;2.722;2023-04-02T03:12:44;101079.25;;;13.00;69.84
54248;BME280;40161;39.768;2.722;2023-04-02T03:15:50;101083.56;;;12.98;69.30
54248;BME280;40161;39.768;2.722;2023-04-02T03:18:13;101078.41;;;12.96;70.60
54248;BME280;40161;39.768;2.722;2023-04-02T03:20:45;101106.84;;;13.30;71.77
54248;BME280;40161;39.768;2.722;2023-04-02T03:23:23;101116.25;;;13.26;72.15
54248;BME280;40161;39.768;2.722;2023-04-02T03:28:26;101112.00;;;13.05;73.51
54248;BME280;40161;39.768;2.722;2023-04-02T03:31:04;101124.59;;;13.33;73.46
54248;BME280;40161;39.768;2.722;2023-04-02T03:33:47;101093.28;;;13.18;74.81
54248;BME280;40161;39.768;2.722;2023-04-02T03:36:30;101098.38;;;13.16;75.70
54248;BME280;40161;39.768;2.722;2023-04-02T03:39:22;101133.34;;;13.12;79.47
54248;BME280;40161;39.768;2.722;2023-04-02T03:41:54;101114.28;;;13.00;79.89
54248;BME280;40161;39.768;2.722;2023-04-02T03:44:35;101128.53;;;13.05;77.84
54248;BME280;40161;39.768;2.722;2023-04-02T03:49:56;101136.19;;;13.19;75.84
54248;BME280;40161;39.768;2.722;2023-04-02T03:52:26;101114.13;;;12.89;72.67
54248;BME280;40161;39.768;2.722;2023-04-02T03:54:54;101101.28;;;12.70;72.93
54248;BME280;40161;39.768;2.722;2023-04-02T03:57:40;101129.53;;;12.94;73.86
54248;BME280;40161;39.768;2.722;2023-04-02T04:00:20;101133.66;;;13.07;71.79
54248;BME280;40161;39.768;2.722;2023-04-02T04:02:57;101134.53;;;13.11;72.66
54248;BME280;40161;39.768;2.722;2023-04-02T04:05:34;101126.91;;;13.01;72.83
54248;BME280;40161;39.768;2.722;2023-04-02T04:08:04;101058.50;;;12.50;71.57
54248;BME280;40161;39.768;2.722;2023-04-02T04:10:31;101154.13;;;13.06;72.38
54248;BME280;40161;39.768;2.722;2023-04-02T04:13:08;101161.25;;;13.11;72.81
54248;BME280;40161;39.768;2.722;2023-04-02T04:21:01;101167.81;;;12.99;73.10
54248;BME280;40161;39.768;2.722;2023-04-02T04:23:32;101178.66;;;13.15;74.61
54248;BME280;40161;39.768;2.722;2023-04-02T04:26:25;101182.91;;;13.09;71.02
54248;BME280;40161;39.768;2.722;2023-04-02T04:29:03;101182.81;;;13.01;70.97
54248;BME280;40161;39.768;2.722;2023-04-02T04:31:47;101184.81;;;13.04;70.44
54248;BME280;40161;39.768;2.722;2023-04-02T04:34:38;101195.84;;;13.04;71.51
54248;BME280;40161;39.768;2.722;2023-04-02T04:37:17;101168.44;;;12.89;70.65
54248;BME280;40161;39.768;2.722;2023-04-02T04:39:56;101190.97;;;12.94;70.40
54248;BME280;40161;39.768;2.722;2023-04-02T04:42:26;101193.44;;;13.03;70.16
54248;BME280;40161;39.768;2.722;2023-04-02T04:47:40;101184.22;;;13.18;70.87
54248;BME280;40161;39.768;2.722;2023-04-02T04:52:48;101186.13;;;13.14;68.92
54248;BME280;40161;39.768;2.722;2023-04-02T04:55:32;101203.53;;;13.18;69.00
54248;BME280;40161;39.768;2.722;2023-04-02T04:58:21;101211.97;;;13.29;68.56
54248;BME280;40161;39.768;2.722;2023-04-02T05:01:09;101216.78;;;13.36;68.82
54248;BME280;40161;39.768;2.722;2023-04-02T05:09:06;101236.16;;;13.16;69.26
54248;BME280;40161;39.768;2.722;2023-04-02T05:12:06;101241.19;;;13.11;65.17
54248;BME280;40161;39.768;2.722;2023-04-02T05:14:41;101236.69;;;12.99;66.55
54248;BME280;40161;39.768;2.722;2023-04-02T05:17:42;101238.38;;;13.07;66.25
54248;BME280;40161;39.768;2.722;2023-04-02T05:20:16;101242.16;;;13.22;65.24
54248;BME280;40161;39.768;2.722;2023-04-02T05:23:04;101250.66;;;13.13;65.05
54248;BME280;40161;39.768;2.722;2023-04-02T05:25:32;101245.09;;;13.10;67.27
54248;BME280;40161;39.768;2.722;2023-04-02T05:32:54;101268.44;;;12.93;69.67
54248;BME280;40161;39.768;2.722;2023-04-02T05:35:29;101244.84;;;12.69;70.36
54248;BME280;40161;39.768;2.722;2023-04-02T05:37:57;101283.81;;;12.94;71.06
54248;BME280;40161;39.768;2.722;2023-04-02T05:40:30;101271.88;;;12.86;71.32
54248;BME280;40161;39.768;2.722;2023-04-02T05:43:00;101282.66;;;12.95;70.26
54248;BME280;40161;39.768;2.722;2023-04-02T05:45:34;101241.22;;;12.65;69.47
54248;BME280;40161;39.768;2.722;2023-04-02T05:48:06;101280.75;;;12.99;70.76
54248;BME280;40161;39.768;2.722;2023-04-02T05:50:43;101284.06;;;13.08;69.67
54248;BME280;40161;39.768;2.722;2023-04-02T05:56:02;101307.91;;;13.23;69.41
54248;BME280;40161;39.768;2.722;2023-04-02T05:58:37;101262.41;;;12.83;70.45
54248;BME280;40161;39.768;2.722;2023-04-02T06:01:43;101305.13;;;12.97;69.90
54248;BME280;40161;39.768;2.722;2023-04-02T06:04:49;101300.78;;;12.96;69.89
54248;BME280;40161;39.768;2.722;2023-04-02T06:07:48;101317.75;;;12.98;71.15
54248;BME280;40161;39.768;2.722;2023-04-02T06:10:22;101313.81;;;12.99;70.89
54248;BME280;40161;39.768;2.722;2023-04-02T06:12:53;101278.78;;;12.76;70.82
54248;BME280;40161;39.768;2.722;2023-04-02T06:15:21;101304.22;;;12.89;70.44
54248;BME280;40161;39.768;2.722;2023-04-02T06:20:22;101318.41;;;12.91;70.27
54248;BME280;40161;39.768;2.722;2023-04-02T06:22:54;101321.34;;;13.02;70.33
54248;BME280;40161;39.768;2.722;2023-04-02T06:27:51;101324.53;;;13.04;69.20
54248;BME280;40161;39.768;2.722;2023-04-02T06:30:22;101316.75;;;13.10;69.30
54248;BME280;40161;39.768;2.722;2023-04-02T06:32:48;101299.75;;;12.81;68.76
54248;BME280;40161;39.768;2.722;2023-04-02T06:35:15;101312.72;;;13.03;70.71
54248;BME280;40161;39.768;2.722;2023-04-02T06:37:43;101277.34;;;12.82;67.96
54248;BME280;40161;39.768;2.722;2023-04-02T06:40:38;101320.63;;;13.05;67.57
54248;BME280;40161;39.768;2.722;2023-04-02T06:43:15;101298.81;;;12.96;68.60
54248;BME280;40161;39.768;2.722;2023-04-02T06:45:45;101328.81;;;13.01;67.44
54248;BME280;40161;39.768;2.722;2023-04-02T06:48:16;101323.81;;;12.84;69.74
54248;BME280;40161;39.768;2.722;2023-04-02T06:50:48;101334.03;;;12.83;70.27
54248;BME280;40161;39.768;2.722;2023-04-02T06:53:20;101331.94;;;13.00;70.50
54248;BME280;40161;39.768;2.722;2023-04-02T06:58:17;101337.88;;;13.02;69.60
54248;BME280;40161;39.768;2.722;2023-04-02T07:00:47;101310.56;;;12.93;68.91
54248;BME280;40161;39.768;2.722;2023-04-02T07:03:16;101352.22;;;13.11;69.01
54248;BME280;40161;39.768;2.722;2023-04-02T07:05:45;101336.31;;;13.01;67.82
54248;BME280;40161;39.768;2.722;2023-04-02T07:08:10;101355.31;;;13.10;68.60
54248;BME280;40161;39.768;2.722;2023-04-02T07:10:36;101345.94;;;13.14;69.52
54248;BME280;40161;39.768;2.722;2023-04-02T07:13:02;101346.44;;;13.20;69.05
54248;BME280;40161;39.768;2.722;2023-04-02T07:15:27;101358.16;;;13.36;69.07
54248;BME280;40161;39.768;2.722;2023-04-02T07:17:53;101352.16;;;13.30;67.55
54248;BME280;40161;39.768;2.722;2023-04-02T07:20:29;101356.38;;;13.24;68.38
54248;BME280;40161;39.768;2.722;2023-04-02T07:22:55;101348.47;;;13.23;67.78
54248;BME280;40161;39.768;2.722;2023-04-02T07:25:22;101337.97;;;13.28;67.41
54248;BME280;40161;39.768;2.722;2023-04-02T07:27:48;101300.66;;;13.12;66.65
54248;BME280;40161;39.768;2.722;2023-04-02T07:30:13;101326.88;;;13.25;67.51
54248;BME280;40161;39.768;2.722;2023-04-02T07:32:39;101332.59;;;13.16;66.81
54248;BME280;40161;39.768;2.722;2023-04-02T07:35:05;101350.19;;;13.31;67.07
54248;BME280;40161;39.768;2.722;2023-04-02T07:37:32;101360.97;;;13.40;67.36
54248;BME280;40161;39.768;2.722;2023-04-02T07:39:57;101362.00;;;13.32;66.98
54248;BME280;40161;39.768;2.722;2023-04-02T07:42:23;101375.38;;;13.29;66.79
54248;BME280;40161;39.768;2.722;2023-04-02T07:44:48;101366.72;;;13.31;67.18
54248;BME280;40161;39.768;2.722;2023-04-02T07:47:15;101362.38;;;13.30;66.70
54248;BME280;40161;39.768;2.722;2023-04-02T07:49:41;101374.22;;;13.30;66.57
54248;BME280;40161;39.768;2.722;2023-04-02T07:52:06;101395.03;;;13.28;66.88
54248;BME280;40161;39.768;2.722;2023-04-02T07:54:32;101380.97;;;13.14;66.14
54248;BME280;40161;39.768;2.722;2023-04-02T07:56:57;101347.88;;;12.87;66.60
54248;BME280;40161;39.768;2.722;2023-04-02T07:59:23;101379.34;;;13.09;65.44
54248;BME280;40161;39.768;2.722;2023-04-02T08:01:51;101379.84;;;13.15;65.28
54248;BME280;40161;39.768;2.722;2023-04-02T08:04:21;101376.31;;;13.18;64.34
54248;BME280;40161;39.768;2.722;2023-04-02T08:06:47;101374.19;;;13.07;64.46
54248;BME280;40161;39.768;2.722;2023-04-02T08:09:14;101361.22;;;13.08;64.35
54248;BME280;40161;39.768;2.722;2023-04-02T08:11:39;101387.78;;;13.20;64.20
54248;BME280;40161;39.768;2.722;2023-04-02T08:14:07;101396.66;;;13.29;65.40
54248;BME280;40161;39.768;2.722;2023-04-02T08:16:52;101407.28;;;13.30;65.31
54248;BME280;40161;39.768;2.722;2023-04-02T08:19:18;101401.78;;;13.30;65.90
54248;BME280;40161;39.768;2.722;2023-04-02T08:21:44;101395.09;;;13.32;66.68
54248;BME280;40161;39.768;2.722;2023-04-02T08:24:09;101415.31;;;13.39;64.31
54248;BME280;40161;39.768;2.722;2023-04-02T08:26:35;101399.81;;;13.31;64.75
54248;BME280;40161;39.768;2.722;2023-04-02T08:29:01;101399.19;;;13.41;64.32
54248;BME280;40161;39.768;2.722;2023-04-02T08:31:27;101397.38;;;13.49;66.00
54248;BME280;40161;39.768;2.722;2023-04-02T08:33:52;101386.41;;;13.52;65.27
54248;BME280;40161;39.768;2.722;2023-04-02T08:36:26;101382.34;;;13.46;65.66
54248;BME280;40161;39.768;2.722;2023-04-02T08:38:52;101387.25;;;13.57;66.68
54248;BME280;40161;39.768;2.722;2023-04-02T08:41:23;101391.19;;;13.59;66.27
54248;BME280;40161;39.768;2.722;2023-04-02T08:46:48;101391.41;;;13.47;65.53
54248;BME280;40161;39.768;2.722;2023-04-02T08:49:19;101396.19;;;13.50;65.41
54248;BME280;40161;39.768;2.722;2023-04-02T08:51:51;101394.91;;;13.44;65.80
54248;BME280;40161;39.768;2.722;2023-04-02T08:54:25;101407.53;;;13.45;65.60
54248;BME280;40161;39.768;2.722;2023-04-02T08:56:54;101401.22;;;13.44;66.07
54248;BME280;40161;39.768;2.722;2023-04-02T08:59:32;101402.50;;;13.50;67.67
54248;BME280;40161;39.768;2.722;2023-04-02T09:04:30;101408.41;;;13.75;66.44
54248;BME280;40161;39.768;2.722;2023-04-02T09:06:58;101377.00;;;13.57;65.30
54248;BME280;40161;39.768;2.722;2023-04-02T09:09:24;101412.38;;;13.78;66.20
54248;BME280;40161;39.768;2.722;2023-04-02T09:12:01;101414.09;;;13.60;64.61
54248;BME280;40161;39.768;2.722;2023-04-02T09:14:43;101401.88;;;13.61;66.17
54248;BME280;40161;39.768;2.722;2023-04-02T09:17:18;101401.50;;;13.62;65.26
54248;BME280;40161;39.768;2.722;2023-04-02T09:19:53;101410.09;;;13.57;66.13
54248;BME280;40161;39.768;2.722;2023-04-02T09:22:26;101415.56;;;13.80;66.64
54248;BME280;40161;39.768;2.722;2023-04-02T09:24:57;101397.38;;;13.75;65.64
54248;BME280;40161;39.768;2.722;2023-04-02T09:27:29;101419.53;;;13.83;64.62
54248;BME280;40161;39.768;2.722;2023-04-02T09:30:02;101415.00;;;13.94;65.92
54248;BME280;40161;39.768;2.722;2023-04-02T09:37:33;101404.19;;;14.12;65.66
54248;BME280;40161;39.768;2.722;2023-04-02T09:40:30;101414.72;;;14.02;65.98
54248;BME280;40161;39.768;2.722;2023-04-02T09:43:15;101373.38;;;13.80;65.84
54248;BME280;40161;39.768;2.722;2023-04-02T09:45:42;101414.06;;;14.13;65.89
54248;BME280;40161;39.768;2.722;2023-04-02T09:48:22;101425.34;;;14.31;65.61
54248;BME280;40161;39.768;2.722;2023-04-02T09:50:49;101411.78;;;14.18;64.55
54248;BME280;40161;39.768;2.722;2023-04-02T09:53:25;101426.03;;;14.24;63.61
54248;BME280;40161;39.768;2.722;2023-04-02T09:58:36;101415.09;;;14.31;63.84
54248;BME280;40161;39.768;2.722;2023-04-02T10:01:02;101409.56;;;14.31;65.59
54248;BME280;40161;39.768;2.722;2023-04-02T10:03:31;101428.41;;;14.52;66.06
54248;BME280;40161;39.768;2.722;2023-04-02T10:06:08;101432.69;;;14.49;65.16
54248;BME280;40161;39.768;2.722;2023-04-02T10:08:35;101426.16;;;14.35;65.37
54248;BME280;40161;39.768;2.722;2023-04-02T10:11:15;101432.16;;;14.40;65.63
54248;BME280;40161;39.768;2.722;2023-04-02T10:14:02;101444.03;;;14.71;64.80
54248;BME280;40161;39.768;2.722;2023-04-02T10:16:39;101450.38;;;14.75;64.28
54248;BME280;40161;39.768;2.722;2023-04-02T10:19:39;101429.41;;;14.70;63.49
54248;BME280;40161;39.768;2.722;2023-04-02T10:22:19;101421.44;;;14.65;62.79
54248;BME280;40161;39.768;2.722;2023-04-02T10:24:46;101438.09;;;14.72;62.78
54248;BME280;40161;39.768;2.722;2023-04-02T10:38:19;101437.75;;;14.74;63.84
54248;BME280;40161;39.768;2.722;2023-04-02T10:40:57;101433.44;;;14.77;63.83
54248;BME280;40161;39.768;2.722;2023-04-02T10:51:48;101441.88;;;14.91;66.11
54248;BME280;40161;39.768;2.722;2023-04-02T10:57:11;101397.97;;;14.82;64.14
54248;BME280;40161;39.768;2.722;2023-04-02T11:00:04;101431.03;;;15.12;63.78
54248;BME280;40161;39.768;2.722;2023-04-02T11:02:46;101440.72;;;15.33;64.37
54248;BME280;40161;39.768;2.722;2023-04-02T11:11:00;101392.22;;;15.42;62.77
54248;BME280;40161;39.768;2.722;2023-04-02T11:13:31;101440.09;;;15.50;62.83
54248;BME280;40161;39.768;2.722;2023-04-02T11:16:00;101429.31;;;15.41;62.91
54248;BME280;40161;39.768;2.722;2023-04-02T11:18:30;101382.00;;;15.06;63.01
54248;BME280;40161;39.768;2.722;2023-04-02T11:24:02;101402.00;;;15.33;63.80
54248;BME280;40161;39.768;2.722;2023-04-02T11:26:35;101428.59;;;15.48;62.46
54248;BME280;40161;39.768;2.722;2023-04-02T11:31:37;101411.22;;;15.48;62.15
54248;BME280;40161;39.768;2.722;2023-04-02T11:34:11;101400.66;;;15.60;61.09
54248;BME280;40161;39.768;2.722;2023-04-02T11:39:48;101408.53;;;15.62;61.49
54248;BME280;40161;39.768;2.722;2023-04-02T11:44:43;101379.28;;;15.57;61.37
54248;BME280;40161;39.768;2.722;2023-04-02T11:47:20;101415.41;;;15.79;61.21
54248;BME280;40161;39.768;2.722;2023-04-02T11:52:32;101431.84;;;15.57;61.03
54248;BME280;40161;39.768;2.722;2023-04-02T11:55:23;101436.53;;;15.50;60.67
54248;BME280;40161;39.768;2.722;2023-04-02T12:05:53;101439.66;;;15.96;61.58
54248;BME280;40161;39.768;2.722;2023-04-02T12:08:53;101430.16;;;15.90;60.38
54248;BME280;40161;39.768;2.722;2023-04-02T12:11:34;101421.81;;;15.86;60.18
54248;BME280;40161;39.768;2.722;2023-04-02T12:14:27;101413.06;;;15.77;59.69
54248;BME280;40161;39.768;2.722;2023-04-02T12:16:51;101422.91;;;15.75;60.30
54248;BME280;40161;39.768;2.722;2023-04-02T12:19:17;101354.56;;;15.31;61.14
54248;BME280;40161;39.768;2.722;2023-04-02T12:21:45;101326.72;;;15.06;60.48
54248;BME280;40161;39.768;2.722;2023-04-02T12:24:20;101398.66;;;15.61;60.45
54248;BME280;40161;39.768;2.722;2023-04-02T12:26:47;101367.72;;;15.44;60.31
54248;BME280;40161;39.768;2.722;2023-04-02T12:31:46;101397.97;;;15.68;59.99
54248;BME280;40161;39.768;2.722;2023-04-02T12:34:17;101418.97;;;15.79;60.27
54248;BME280;40161;39.768;2.722;2023-04-02T12:39:19;101377.75;;;15.63;59.88
54248;BME280;40161;39.768;2.722;2023-04-02T12:41:45;101402.44;;;15.83;60.20
54248;BME280;40161;39.768;2.722;2023-04-02T12:44:20;101396.66;;;15.58;59.48
54248;BME280;40161;39.768;2.722;2023-04-02T12:46:47;101419.25;;;15.63;60.47
54248;BME280;40161;39.768;2.722;2023-04-02T12:49:36;101416.47;;;15.63;60.37
54248;BME280;40161;39.768;2.722;2023-04-02T12:52:08;101409.38;;;15.62;61.37
54248;BME280;40161;39.768;2.722;2023-04-02T12:54:42;101405.31;;;15.49;61.39
54248;BME280;40161;39.768;2.722;2023-04-02T12:57:38;101398.44;;;15.77;61.76
54248;BME280;40161;39.768;2.722;2023-04-02T13:02:51;101415.50;;;15.93;61.18
54248;BME280;40161;39.768;2.722;2023-04-02T13:05:40;101401.31;;;15.95;61.45
54248;BME280;40161;39.768;2.722;2023-04-02T13:08:39;101418.50;;;16.29;61.50
54248;BME280;40161;39.768;2.722;2023-04-02T13:11:05;101400.69;;;16.30;58.98
54248;BME280;40161;39.768;2.722;2023-04-02T13:13:36;101390.00;;;16.25;59.70
54248;BME280;40161;39.768;2.722;2023-04-02T13:16:23;101415.00;;;16.46;59.44
54248;BME280;40161;39.768;2.722;2023-04-02T13:18:49;101409.81;;;16.34;59.08
54248;BME280;40161;39.768;2.722;2023-04-02T13:23:41;101393.06;;;16.05;60.27
54248;BME280;40161;39.768;2.722;2023-04-02T13:26:33;101400.34;;;16.38;60.01
54248;BME280;40161;39.768;2.722;2023-04-02T13:31:27;101398.44;;;16.60;59.41
54248;BME280;40161;39.768;2.722;2023-04-02T13:33:53;101378.63;;;16.58;59.25
54248;BME280;40161;39.768;2.722;2023-04-02T13:36:19;101386.97;;;16.62;58.50
54248;BME280;40161;39.768;2.722;2023-04-02T13:38:44;101368.34;;;16.59;57.44
54248;BME280;40161;39.768;2.722;2023-04-02T13:41:28;101360.44;;;16.61;58.34
54248;BME280;40161;39.768;2.722;2023-04-02T13:43:57;101381.91;;;16.89;57.67
54248;BME280;40161;39.768;2.722;2023-04-02T13:46:29;101379.13;;;16.82;58.06
54248;BME280;40161;39.768;2.722;2023-04-02T13:48:56;101367.25;;;16.81;57.95
54248;BME280;40161;39.768;2.722;2023-04-02T13:51:49;101378.34;;;16.89;58.01
54248;BME280;40161;39.768;2.722;2023-04-02T13:54:44;101375.97;;;16.94;57.83
54248;BME280;40161;39.768;2.722;2023-04-02T13:57:13;101327.13;;;16.40;58.07
54248;BME280;40161;39.768;2.722;2023-04-02T13:59:39;101356.50;;;16.66;58.00
54248;BME280;40161;39.768;2.722;2023-04-02T14:02:11;101383.09;;;16.84;57.71
54248;BME280;40161;39.768;2.722;2023-04-02T14:04:41;101380.63;;;16.72;57.18
54248;BME280;40161;39.768;2.722;2023-04-02T14:15:29;101391.69;;;16.58;58.11
54248;BME280;40161;39.768;2.722;2023-04-02T14:18:13;101399.22;;;16.57;58.28
54248;BME280;40161;39.768;2.722;2023-04-02T14:29:36;101339.00;;;16.40;58.10
54248;BME280;40161;39.768;2.722;2023-04-02T14:40:02;101372.41;;;16.76;58.84
54248;BME280;40161;39.768;2.722;2023-04-02T14:42:45;101369.22;;;16.81;58.87
54248;BME280;40161;39.768;2.722;2023-04-02T14:47:42;101367.25;;;16.85;57.83
54248;BME280;40161;39.768;2.722;2023-04-02T14:50:16;101351.41;;;16.89;57.12
54248;BME280;40161;39.768;2.722;2023-04-02T14:52:46;101358.56;;;17.04;57.28
54248;BME280;40161;39.768;2.722;2023-04-02T14:58:02;101355.38;;;17.09;58.08
54248;BME280;40161;39.768;2.722;2023-04-02T15:03:15;101354.59;;;17.05;56.32
54248;BME280;40161;39.768;2.722;2023-04-02T15:08:27;101358.56;;;17.19;57.24
54248;BME280;40161;39.768;2.722;2023-04-02T15:11:16;101349.84;;;17.13;57.43
54248;BME280;40161;39.768;2.722;2023-04-02T15:16:39;101347.88;;;17.14;56.29
54248;BME280;40161;39.768;2.722;2023-04-02T15:19:11;101355.38;;;17.20;56.06
54248;BME280;40161;39.768;2.722;2023-04-02T15:24:39;101360.94;;;17.24;56.32
54248;BME280;40161;39.768;2.722;2023-04-02T15:37:51;101363.31;;;17.36;56.51
54248;BME280;40161;39.768;2.722;2023-04-02T15:43:44;101371.66;;;17.32;55.80
54248;BME280;40161;39.768;2.722;2023-04-02T16:00:23;101350.66;;;17.35;55.07
54248;BME280;40161;39.768;2.722;2023-04-02T16:10:41;101316.13;;;17.50;53.49
54248;BME280;40161;39.768;2.722;2023-04-02T16:13:33;101284.84;;;17.36;54.04
54248;BME280;40161;39.768;2.722;2023-04-02T16:18:54;101325.25;;;17.65;53.70
54248;BME280;40161;39.768;2.722;2023-04-02T16:21:28;101314.13;;;17.69;52.64
54248;BME280;40161;39.768;2.722;2023-04-02T16:23:56;101311.34;;;17.69;53.68
54248;BME280;40161;39.768;2.722;2023-04-02T16:27:19;101322.03;;;17.81;53.38
54248;BME280;40161;39.768;2.722;2023-04-02T16:38:07;101326.00;;;17.80;53.16
54248;BME280;40161;39.768;2.722;2023-04-02T16:43:40;101319.66;;;17.72;53.17
54248;BME280;40161;39.768;2.722;2023-04-02T16:48:58;101329.19;;;17.64;52.99
54248;BME280;40161;39.768;2.722;2023-04-02T16:54:24;101314.53;;;17.64;53.28
54248;BME280;40161;39.768;2.722;2023-04-02T17:02:55;101314.56;;;17.49;54.32
54248;BME280;40161;39.768;2.722;2023-04-02T17:05:38;101311.41;;;17.19;54.27
54248;BME280;40161;39.768;2.722;2023-04-02T17:08:28;101330.81;;;17.26;55.46
54248;BME280;40161;39.768;2.722;2023-04-02T17:11:09;101288.84;;;17.06;55.94
54248;BME280;40161;39.768;2.722;2023-04-02T17:13:43;101322.50;;;17.15;54.12
54248;BME280;40161;39.768;2.722;2023-04-02T17:18:39;101309.03;;;17.10;55.55
54248;BME280;40161;39.768;2.722;2023-04-02T17:21:08;101332.03;;;17.14;55.23
54248;BME280;40161;39.768;2.722;2023-04-02T17:26:36;101291.16;;;16.68;57.81
54248;BME280;40161;39.768;2.722;2023-04-02T17:29:06;101336.38;;;16.87;57.75
54248;BME280;40161;39.768;2.722;2023-04-02T17:31:32;101341.84;;;16.69;56.69
54248;BME280;40161;39.768;2.722;2023-04-02T17:34:09;101331.53;;;16.58;57.17